sensor_id;sensor_type;location;lat;lon;timestamp;temperature;humidity
57660;DHT22;43485;45.680;15.702;2024-02-26T00:01:49;4.00;66.10
57660;DHT22;43485;45.680;15.702;2024-02-26T00:04:15;3.90;66.10
57660;DHT22;43485;45.680;15.702;2024-02-26T00:06:41;4.00;65.90
57660;DHT22;43485;45.680;15.702;2024-02-26T00:09:08;4.00;66.30
57660;DHT22;43485;45.680;15.702;2024-02-26T00:14:20;4.10;65.80
57660;DHT22;43485;45.680;15.702;2024-02-26T00:16:46;4.00;65.90
57660;DHT22;43485;45.680;15.702;2024-02-26T00:19:12;4.00;65.60
57660;DHT22;43485;45.680;15.702;2024-02-26T00:24:22;4.00;65.90
57660;DHT22;43485;45.680;15.702;2024-02-26T00:26:48;3.90;66.50
57660;DHT22;43485;45.680;15.702;2024-02-26T00:29:18;3.80;66.90
57660;DHT22;43485;45.680;15.702;2024-02-26T00:31:45;3.70;67.50
57660;DHT22;43485;45.680;15.702;2024-02-26T00:34:11;3.70;67.60
57660;DHT22;43485;45.680;15.702;2024-02-26T00:36:37;3.70;67.90
57660;DHT22;43485;45.680;15.702;2024-02-26T00:39:02;3.70;67.80
57660;DHT22;43485;45.680;15.702;2024-02-26T00:41:29;3.70;67.70
57660;DHT22;43485;45.680;15.702;2024-02-26T00:43:55;3.70;67.10
57660;DHT22;43485;45.680;15.702;2024-02-26T00:46:21;3.70;68.20
57660;DHT22;43485;45.680;15.702;2024-02-26T00:48:46;3.70;68.10
57660;DHT22;43485;45.680;15.702;2024-02-26T00:51:12;3.70;67.90
57660;DHT22;43485;45.680;15.702;2024-02-26T00:53:38;3.70;67.30
57660;DHT22;43485;45.680;15.702;2024-02-26T00:56:04;3.80;67.00
57660;DHT22;43485;45.680;15.702;2024-02-26T00:58:30;3.70;67.20
57660;DHT22;43485;45.680;15.702;2024-02-26T01:00:56;3.70;67.70
57660;DHT22;43485;45.680;15.702;2024-02-26T01:03:22;3.60;67.80
57660;DHT22;43485;45.680;15.702;2024-02-26T01:05:48;3.60;67.80
57660;DHT22;43485;45.680;15.702;2024-02-26T01:08:14;3.60;67.90
57660;DHT22;43485;45.680;15.702;2024-02-26T01:10:40;3.60;68.00
57660;DHT22;43485;45.680;15.702;2024-02-26T01:13:06;3.60;67.80
57660;DHT22;43485;45.680;15.702;2024-02-26T01:15:33;3.60;67.70
57660;DHT22;43485;45.680;15.702;2024-02-26T01:17:58;3.60;67.40
57660;DHT22;43485;45.680;15.702;2024-02-26T01:20:24;3.60;67.30
57660;DHT22;43485;45.680;15.702;2024-02-26T01:22:50;3.60;67.50
57660;DHT22;43485;45.680;15.702;2024-02-26T01:25:16;3.60;68.30
57660;DHT22;43485;45.680;15.702;2024-02-26T01:27:43;3.60;67.80
57660;DHT22;43485;45.680;15.702;2024-02-26T01:30:09;3.50;67.20
57660;DHT22;43485;45.680;15.702;2024-02-26T01:32:36;3.40;67.30
57660;DHT22;43485;45.680;15.702;2024-02-26T01:35:02;3.40;67.00
57660;DHT22;43485;45.680;15.702;2024-02-26T01:37:29;3.40;67.10
57660;DHT22;43485;45.680;15.702;2024-02-26T01:39:57;3.30;66.70
57660;DHT22;43485;45.680;15.702;2024-02-26T01:42:23;3.40;67.40
57660;DHT22;43485;45.680;15.702;2024-02-26T01:44:49;3.30;67.40
57660;DHT22;43485;45.680;15.702;2024-02-26T01:47:15;3.30;67.20
57660;DHT22;43485;45.680;15.702;2024-02-26T01:49:41;3.30;67.40
57660;DHT22;43485;45.680;15.702;2024-02-26T01:52:08;3.30;67.10
57660;DHT22;43485;45.680;15.702;2024-02-26T01:54:34;3.30;67.10
57660;DHT22;43485;45.680;15.702;2024-02-26T01:57:00;3.30;66.90
57660;DHT22;43485;45.680;15.702;2024-02-26T01:59:27;3.30;67.10
57660;DHT22;43485;45.680;15.702;2024-02-26T02:01:54;3.30;67.10
57660;DHT22;43485;45.680;15.702;2024-02-26T02:04:22;3.30;67.20
57660;DHT22;43485;45.680;15.702;2024-02-26T02:06:48;3.20;67.20
57660;DHT22;43485;45.680;15.702;2024-02-26T02:09:14;3.20;67.50
57660;DHT22;43485;45.680;15.702;2024-02-26T02:11:40;3.20;67.40
57660;DHT22;43485;45.680;15.702;2024-02-26T02:14:07;3.10;67.40
57660;DHT22;43485;45.680;15.702;2024-02-26T02:16:33;3.10;67.40
57660;DHT22;43485;45.680;15.702;2024-02-26T02:18:59;3.10;66.90
57660;DHT22;43485;45.680;15.702;2024-02-26T02:21:25;3.10;67.50
57660;DHT22;43485;45.680;15.702;2024-02-26T02:23:51;3.00;67.50
57660;DHT22;43485;45.680;15.702;2024-02-26T02:26:17;3.00;67.50
57660;DHT22;43485;45.680;15.702;2024-02-26T02:28:43;3.00;67.20
57660;DHT22;43485;45.680;15.702;2024-02-26T02:31:09;3.00;67.30
57660;DHT22;43485;45.680;15.702;2024-02-26T02:33:36;3.00;67.30
57660;DHT22;43485;45.680;15.702;2024-02-26T02:36:01;3.00;67.30
57660;DHT22;43485;45.680;15.702;2024-02-26T02:38:27;3.00;67.00
57660;DHT22;43485;45.680;15.702;2024-02-26T02:40:55;3.10;67.20
57660;DHT22;43485;45.680;15.702;2024-02-26T02:43:21;3.00;67.10
57660;DHT22;43485;45.680;15.702;2024-02-26T02:45:47;3.00;67.50
57660;DHT22;43485;45.680;15.702;2024-02-26T02:48:13;3.00;67.50
57660;DHT22;43485;45.680;15.702;2024-02-26T02:50:39;2.90;67.50
57660;DHT22;43485;45.680;15.702;2024-02-26T02:53:04;2.90;67.50
57660;DHT22;43485;45.680;15.702;2024-02-26T02:55:30;2.90;67.80
57660;DHT22;43485;45.680;15.702;2024-02-26T02:57:56;2.80;67.80
57660;DHT22;43485;45.680;15.702;2024-02-26T03:00:22;2.90;67.70
57660;DHT22;43485;45.680;15.702;2024-02-26T03:02:48;2.80;67.30
57660;DHT22;43485;45.680;15.702;2024-02-26T03:05:15;2.80;66.80
57660;DHT22;43485;45.680;15.702;2024-02-26T03:07:40;2.80;66.20
57660;DHT22;43485;45.680;15.702;2024-02-26T03:10:06;2.70;66.70
57660;DHT22;43485;45.680;15.702;2024-02-26T03:12:33;2.60;65.80
57660;DHT22;43485;45.680;15.702;2024-02-26T03:14:59;2.60;66.40
57660;DHT22;43485;45.680;15.702;2024-02-26T03:17:28;2.60;66.10
57660;DHT22;43485;45.680;15.702;2024-02-26T03:19:54;2.60;67.10
57660;DHT22;43485;45.680;15.702;2024-02-26T03:22:20;2.60;66.90
57660;DHT22;43485;45.680;15.702;2024-02-26T03:24:47;2.50;66.70
57660;DHT22;43485;45.680;15.702;2024-02-26T03:27:13;2.50;67.10
57660;DHT22;43485;45.680;15.702;2024-02-26T03:29:39;2.50;67.30
57660;DHT22;43485;45.680;15.702;2024-02-26T03:32:05;2.50;67.30
57660;DHT22;43485;45.680;15.702;2024-02-26T03:34:32;2.50;67.40
57660;DHT22;43485;45.680;15.702;2024-02-26T03:37:18;2.40;67.30
57660;DHT22;43485;45.680;15.702;2024-02-26T03:39:44;2.40;68.30
57660;DHT22;43485;45.680;15.702;2024-02-26T03:42:10;2.40;68.20
57660;DHT22;43485;45.680;15.702;2024-02-26T03:44:36;2.40;68.30
57660;DHT22;43485;45.680;15.702;2024-02-26T03:47:01;2.40;68.20
57660;DHT22;43485;45.680;15.702;2024-02-26T03:49:27;2.40;68.10
57660;DHT22;43485;45.680;15.702;2024-02-26T03:51:53;2.40;68.20
57660;DHT22;43485;45.680;15.702;2024-02-26T03:54:19;2.40;67.90
57660;DHT22;43485;45.680;15.702;2024-02-26T03:56:45;2.30;67.90
57660;DHT22;43485;45.680;15.702;2024-02-26T03:59:11;2.30;68.10
57660;DHT22;43485;45.680;15.702;2024-02-26T04:01:37;2.30;68.10
57660;DHT22;43485;45.680;15.702;2024-02-26T04:04:03;2.30;67.80
57660;DHT22;43485;45.680;15.702;2024-02-26T04:06:29;2.30;68.10
57660;DHT22;43485;45.680;15.702;2024-02-26T04:08:54;2.30;68.20
57660;DHT22;43485;45.680;15.702;2024-02-26T04:11:20;2.30;68.10
57660;DHT22;43485;45.680;15.702;2024-02-26T04:13:47;2.20;67.60
57660;DHT22;43485;45.680;15.702;2024-02-26T04:16:16;2.20;67.70
57660;DHT22;43485;45.680;15.702;2024-02-26T04:18:42;2.20;67.50
57660;DHT22;43485;45.680;15.702;2024-02-26T04:21:08;2.20;67.10
57660;DHT22;43485;45.680;15.702;2024-02-26T04:23:34;2.20;67.60
57660;DHT22;43485;45.680;15.702;2024-02-26T04:26:00;2.10;67.60
57660;DHT22;43485;45.680;15.702;2024-02-26T04:28:25;2.10;67.50
57660;DHT22;43485;45.680;15.702;2024-02-26T04:30:54;2.10;67.20
57660;DHT22;43485;45.680;15.702;2024-02-26T04:33:21;2.10;67.20
57660;DHT22;43485;45.680;15.702;2024-02-26T04:35:47;2.10;67.10
57660;DHT22;43485;45.680;15.702;2024-02-26T04:38:12;2.20;67.10
57660;DHT22;43485;45.680;15.702;2024-02-26T04:40:38;2.20;67.60
57660;DHT22;43485;45.680;15.702;2024-02-26T04:43:04;2.20;67.50
57660;DHT22;43485;45.680;15.702;2024-02-26T04:45:30;2.30;67.30
57660;DHT22;43485;45.680;15.702;2024-02-26T04:47:56;2.30;67.60
57660;DHT22;43485;45.680;15.702;2024-02-26T04:50:22;2.20;68.20
57660;DHT22;43485;45.680;15.702;2024-02-26T04:52:48;2.30;68.50
57660;DHT22;43485;45.680;15.702;2024-02-26T04:55:14;2.20;68.30
57660;DHT22;43485;45.680;15.702;2024-02-26T04:57:40;2.30;68.20
57660;DHT22;43485;45.680;15.702;2024-02-26T05:00:06;2.20;67.30
57660;DHT22;43485;45.680;15.702;2024-02-26T05:02:33;2.10;67.40
57660;DHT22;43485;45.680;15.702;2024-02-26T05:05:04;2.10;67.90
57660;DHT22;43485;45.680;15.702;2024-02-26T05:07:30;2.10;67.60
57660;DHT22;43485;45.680;15.702;2024-02-26T05:09:56;2.10;68.50
57660;DHT22;43485;45.680;15.702;2024-02-26T05:12:22;2.00;68.60
57660;DHT22;43485;45.680;15.702;2024-02-26T05:14:48;2.00;68.90
57660;DHT22;43485;45.680;15.702;2024-02-26T05:17:14;2.00;69.20
57660;DHT22;43485;45.680;15.702;2024-02-26T05:19:40;2.00;68.80
57660;DHT22;43485;45.680;15.702;2024-02-26T05:22:06;2.00;69.00
57660;DHT22;43485;45.680;15.702;2024-02-26T05:24:31;2.10;69.20
57660;DHT22;43485;45.680;15.702;2024-02-26T05:26:57;2.10;69.20
57660;DHT22;43485;45.680;15.702;2024-02-26T05:29:24;2.10;69.20
57660;DHT22;43485;45.680;15.702;2024-02-26T05:31:50;2.20;69.10
57660;DHT22;43485;45.680;15.702;2024-02-26T05:34:16;2.20;69.10
57660;DHT22;43485;45.680;15.702;2024-02-26T05:36:42;2.20;68.90
57660;DHT22;43485;45.680;15.702;2024-02-26T05:39:08;2.30;69.10
57660;DHT22;43485;45.680;15.702;2024-02-26T05:41:36;2.20;69.70
57660;DHT22;43485;45.680;15.702;2024-02-26T05:44:02;2.20;69.50
57660;DHT22;43485;45.680;15.702;2024-02-26T05:46:29;2.30;69.30
57660;DHT22;43485;45.680;15.702;2024-02-26T05:48:55;2.30;69.50
57660;DHT22;43485;45.680;15.702;2024-02-26T05:51:21;2.30;70.10
57660;DHT22;43485;45.680;15.702;2024-02-26T05:53:46;2.30;70.40
57660;DHT22;43485;45.680;15.702;2024-02-26T05:56:19;2.20;70.30
57660;DHT22;43485;45.680;15.702;2024-02-26T05:58:46;2.20;71.20
57660;DHT22;43485;45.680;15.702;2024-02-26T06:01:12;2.20;71.00
57660;DHT22;43485;45.680;15.702;2024-02-26T06:03:37;2.30;70.50
57660;DHT22;43485;45.680;15.702;2024-02-26T06:06:03;2.40;70.50
57660;DHT22;43485;45.680;15.702;2024-02-26T06:08:29;2.40;69.60
57660;DHT22;43485;45.680;15.702;2024-02-26T06:10:56;2.40;70.70
57660;DHT22;43485;45.680;15.702;2024-02-26T06:13:22;2.40;71.00
57660;DHT22;43485;45.680;15.702;2024-02-26T06:15:48;2.40;71.00
57660;DHT22;43485;45.680;15.702;2024-02-26T06:18:13;2.50;70.90
57660;DHT22;43485;45.680;15.702;2024-02-26T06:20:39;2.50;70.60
57660;DHT22;43485;45.680;15.702;2024-02-26T06:23:07;2.50;70.60
57660;DHT22;43485;45.680;15.702;2024-02-26T06:25:32;2.50;70.40
57660;DHT22;43485;45.680;15.702;2024-02-26T06:27:58;2.40;70.30
57660;DHT22;43485;45.680;15.702;2024-02-26T06:30:24;2.40;70.40
57660;DHT22;43485;45.680;15.702;2024-02-26T06:32:50;2.50;70.30
57660;DHT22;43485;45.680;15.702;2024-02-26T06:35:16;2.50;70.00
57660;DHT22;43485;45.680;15.702;2024-02-26T06:37:42;2.50;70.00
57660;DHT22;43485;45.680;15.702;2024-02-26T06:40:08;2.60;70.10
57660;DHT22;43485;45.680;15.702;2024-02-26T06:42:34;2.60;69.30
57660;DHT22;43485;45.680;15.702;2024-02-26T06:45:00;2.70;69.90
57660;DHT22;43485;45.680;15.702;2024-02-26T06:47:26;2.70;69.60
57660;DHT22;43485;45.680;15.702;2024-02-26T06:49:52;2.80;70.00
57660;DHT22;43485;45.680;15.702;2024-02-26T06:52:19;2.80;69.90
57660;DHT22;43485;45.680;15.702;2024-02-26T06:54:44;2.80;70.10
57660;DHT22;43485;45.680;15.702;2024-02-26T06:57:10;2.90;70.30
57660;DHT22;43485;45.680;15.702;2024-02-26T06:59:36;2.90;70.20
57660;DHT22;43485;45.680;15.702;2024-02-26T07:02:02;2.90;70.10
57660;DHT22;43485;45.680;15.702;2024-02-26T07:04:28;3.00;69.60
57660;DHT22;43485;45.680;15.702;2024-02-26T07:06:56;3.10;70.00
57660;DHT22;43485;45.680;15.702;2024-02-26T07:09:22;3.20;70.40
57660;DHT22;43485;45.680;15.702;2024-02-26T07:11:48;3.20;70.20
57660;DHT22;43485;45.680;15.702;2024-02-26T07:14:14;3.20;70.50
57660;DHT22;43485;45.680;15.702;2024-02-26T07:16:39;3.20;70.80
57660;DHT22;43485;45.680;15.702;2024-02-26T07:19:05;3.20;70.80
57660;DHT22;43485;45.680;15.702;2024-02-26T07:21:31;3.30;71.40
57660;DHT22;43485;45.680;15.702;2024-02-26T07:23:57;3.40;71.40
57660;DHT22;43485;45.680;15.702;2024-02-26T07:26:23;3.50;72.10
57660;DHT22;43485;45.680;15.702;2024-02-26T07:28:51;3.60;72.70
57660;DHT22;43485;45.680;15.702;2024-02-26T07:31:17;3.60;72.70
57660;DHT22;43485;45.680;15.702;2024-02-26T07:33:43;3.70;73.00
57660;DHT22;43485;45.680;15.702;2024-02-26T07:36:09;3.90;73.20
57660;DHT22;43485;45.680;15.702;2024-02-26T07:38:35;3.90;72.90
57660;DHT22;43485;45.680;15.702;2024-02-26T07:41:01;4.10;72.80
57660;DHT22;43485;45.680;15.702;2024-02-26T07:43:28;4.20;72.10
57660;DHT22;43485;45.680;15.702;2024-02-26T07:45:54;4.40;72.10
57660;DHT22;43485;45.680;15.702;2024-02-26T07:48:20;4.50;72.50
57660;DHT22;43485;45.680;15.702;2024-02-26T07:50:46;4.60;72.40
57660;DHT22;43485;45.680;15.702;2024-02-26T07:53:11;4.70;72.40
57660;DHT22;43485;45.680;15.702;2024-02-26T07:55:38;4.80;72.10
57660;DHT22;43485;45.680;15.702;2024-02-26T07:58:04;4.80;72.50
57660;DHT22;43485;45.680;15.702;2024-02-26T08:00:30;5.00;72.10
57660;DHT22;43485;45.680;15.702;2024-02-26T08:02:56;5.20;71.70
57660;DHT22;43485;45.680;15.702;2024-02-26T08:05:22;5.40;71.50
57660;DHT22;43485;45.680;15.702;2024-02-26T08:07:48;5.50;71.00
57660;DHT22;43485;45.680;15.702;2024-02-26T08:10:14;5.80;70.20
57660;DHT22;43485;45.680;15.702;2024-02-26T08:12:40;6.00;69.40
57660;DHT22;43485;45.680;15.702;2024-02-26T08:15:06;6.30;69.60
57660;DHT22;43485;45.680;15.702;2024-02-26T08:17:32;6.60;68.90
57660;DHT22;43485;45.680;15.702;2024-02-26T08:19:59;6.90;69.00
57660;DHT22;43485;45.680;15.702;2024-02-26T08:22:25;7.20;68.40
57660;DHT22;43485;45.680;15.702;2024-02-26T08:24:51;7.60;67.80
57660;DHT22;43485;45.680;15.702;2024-02-26T08:27:17;8.80;66.50
57660;DHT22;43485;45.680;15.702;2024-02-26T08:29:43;9.90;64.10
57660;DHT22;43485;45.680;15.702;2024-02-26T08:32:09;11.00;61.40
57660;DHT22;43485;45.680;15.702;2024-02-26T08:34:35;12.00;58.30
57660;DHT22;43485;45.680;15.702;2024-02-26T08:37:01;12.90;56.60
57660;DHT22;43485;45.680;15.702;2024-02-26T08:39:27;13.70;55.10
57660;DHT22;43485;45.680;15.702;2024-02-26T08:41:53;14.40;51.40
57660;DHT22;43485;45.680;15.702;2024-02-26T08:44:19;15.00;50.20
57660;DHT22;43485;45.680;15.702;2024-02-26T08:46:45;15.50;47.40
57660;DHT22;43485;45.680;15.702;2024-02-26T08:49:11;16.00;44.90
57660;DHT22;43485;45.680;15.702;2024-02-26T08:54:22;17.20;41.20
57660;DHT22;43485;45.680;15.702;2024-02-26T08:56:49;17.40;39.40
57660;DHT22;43485;45.680;15.702;2024-02-26T08:59:15;17.70;39.10
57660;DHT22;43485;45.680;15.702;2024-02-26T09:01:42;18.20;37.60
57660;DHT22;43485;45.680;15.702;2024-02-26T09:04:08;18.50;35.80
57660;DHT22;43485;45.680;15.702;2024-02-26T09:06:34;19.00;35.30
57660;DHT22;43485;45.680;15.702;2024-02-26T09:08:59;19.60;33.80
57660;DHT22;43485;45.680;15.702;2024-02-26T09:11:25;20.10;32.20
57660;DHT22;43485;45.680;15.702;2024-02-26T09:13:51;20.70;30.00
57660;DHT22;43485;45.680;15.702;2024-02-26T09:16:17;21.20;29.50
57660;DHT22;43485;45.680;15.702;2024-02-26T09:18:43;21.70;29.80
57660;DHT22;43485;45.680;15.702;2024-02-26T09:21:09;22.00;28.60
57660;DHT22;43485;45.680;15.702;2024-02-26T09:23:35;22.00;29.00
57660;DHT22;43485;45.680;15.702;2024-02-26T09:26:02;21.90;29.20
57660;DHT22;43485;45.680;15.702;2024-02-26T09:28:28;21.90;28.40
57660;DHT22;43485;45.680;15.702;2024-02-26T09:30:56;22.10;28.20
57660;DHT22;43485;45.680;15.702;2024-02-26T09:33:22;22.80;26.90
57660;DHT22;43485;45.680;15.702;2024-02-26T09:35:48;23.50;26.00
57660;DHT22;43485;45.680;15.702;2024-02-26T09:38:14;23.50;24.30
57660;DHT22;43485;45.680;15.702;2024-02-26T09:40:40;22.90;25.00
57660;DHT22;43485;45.680;15.702;2024-02-26T09:43:06;22.20;25.40
57660;DHT22;43485;45.680;15.702;2024-02-26T09:45:36;21.60;26.40
57660;DHT22;43485;45.680;15.702;2024-02-26T09:48:02;21.40;26.80
57660;DHT22;43485;45.680;15.702;2024-02-26T09:50:29;21.40;26.20
57660;DHT22;43485;45.680;15.702;2024-02-26T09:52:55;21.20;27.10
57660;DHT22;43485;45.680;15.702;2024-02-26T09:55:24;20.90;26.80
57660;DHT22;43485;45.680;15.702;2024-02-26T09:57:51;21.00;26.50
57660;DHT22;43485;45.680;15.702;2024-02-26T10:00:17;21.50;26.80
57660;DHT22;43485;45.680;15.702;2024-02-26T10:03:04;21.40;26.30
57660;DHT22;43485;45.680;15.702;2024-02-26T10:05:31;21.30;26.70
57660;DHT22;43485;45.680;15.702;2024-02-26T10:07:59;21.20;26.40
57660;DHT22;43485;45.680;15.702;2024-02-26T10:10:28;21.20;26.70
57660;DHT22;43485;45.680;15.702;2024-02-26T10:12:54;21.10;25.60
57660;DHT22;43485;45.680;15.702;2024-02-26T10:15:20;20.90;26.50
57660;DHT22;43485;45.680;15.702;2024-02-26T10:17:46;20.80;26.90
57660;DHT22;43485;45.680;15.702;2024-02-26T10:23:02;20.40;27.00
57660;DHT22;43485;45.680;15.702;2024-02-26T10:25:29;20.50;26.30
57660;DHT22;43485;45.680;15.702;2024-02-26T10:27:58;20.60;26.20
57660;DHT22;43485;45.680;15.702;2024-02-26T10:30:27;20.30;26.30
57660;DHT22;43485;45.680;15.702;2024-02-26T10:32:54;20.30;27.00
57660;DHT22;43485;45.680;15.702;2024-02-26T10:35:20;20.60;26.20
57660;DHT22;43485;45.680;15.702;2024-02-26T10:37:46;20.60;27.30
57660;DHT22;43485;45.680;15.702;2024-02-26T10:40:13;20.40;27.10
57660;DHT22;43485;45.680;15.702;2024-02-26T10:42:40;20.10;26.40
57660;DHT22;43485;45.680;15.702;2024-02-26T10:45:07;19.90;27.00
57660;DHT22;43485;45.680;15.702;2024-02-26T10:47:34;19.80;26.80
57660;DHT22;43485;45.680;15.702;2024-02-26T10:50:02;19.90;26.90
57660;DHT22;43485;45.680;15.702;2024-02-26T10:52:30;21.00;26.50
57660;DHT22;43485;45.680;15.702;2024-02-26T10:54:59;21.30;25.60
57660;DHT22;43485;45.680;15.702;2024-02-26T10:57:27;21.60;23.80
57660;DHT22;43485;45.680;15.702;2024-02-26T10:59:57;21.80;24.00
57660;DHT22;43485;45.680;15.702;2024-02-26T11:02:23;21.90;23.70
57660;DHT22;43485;45.680;15.702;2024-02-26T11:04:49;21.70;24.10
57660;DHT22;43485;45.680;15.702;2024-02-26T11:07:15;21.30;24.40
57660;DHT22;43485;45.680;15.702;2024-02-26T11:09:41;21.00;24.90
57660;DHT22;43485;45.680;15.702;2024-02-26T11:14:54;20.50;25.50
57660;DHT22;43485;45.680;15.702;2024-02-26T11:17:22;20.30;25.70
57660;DHT22;43485;45.680;15.702;2024-02-26T11:19:48;20.10;25.80
57660;DHT22;43485;45.680;15.702;2024-02-26T11:22:15;20.40;26.90
57660;DHT22;43485;45.680;15.702;2024-02-26T11:24:41;20.40;26.00
57660;DHT22;43485;45.680;15.702;2024-02-26T11:27:09;20.60;25.50
57660;DHT22;43485;45.680;15.702;2024-02-26T11:32:20;20.00;25.70
57660;DHT22;43485;45.680;15.702;2024-02-26T11:34:46;20.10;27.10
57660;DHT22;43485;45.680;15.702;2024-02-26T11:37:14;21.00;25.70
57660;DHT22;43485;45.680;15.702;2024-02-26T11:39:43;22.60;24.70
57660;DHT22;43485;45.680;15.702;2024-02-26T11:42:13;23.20;22.90
57660;DHT22;43485;45.680;15.702;2024-02-26T11:44:40;23.90;22.10
57660;DHT22;43485;45.680;15.702;2024-02-26T11:47:20;24.30;20.90
57660;DHT22;43485;45.680;15.702;2024-02-26T11:49:47;24.20;21.20
57660;DHT22;43485;45.680;15.702;2024-02-26T11:52:14;24.00;21.10
57660;DHT22;43485;45.680;15.702;2024-02-26T11:57:29;23.10;21.00
57660;DHT22;43485;45.680;15.702;2024-02-26T12:00:11;22.40;21.40
57660;DHT22;43485;45.680;15.702;2024-02-26T12:02:39;21.90;22.10
57660;DHT22;43485;45.680;15.702;2024-02-26T12:10:32;23.20;21.30
57660;DHT22;43485;45.680;15.702;2024-02-26T12:18:31;22.90;21.30
57660;DHT22;43485;45.680;15.702;2024-02-26T12:21:02;22.60;21.80
57660;DHT22;43485;45.680;15.702;2024-02-26T12:23:29;22.40;22.40
57660;DHT22;43485;45.680;15.702;2024-02-26T12:25:58;22.40;21.60
57660;DHT22;43485;45.680;15.702;2024-02-26T12:28:28;23.20;21.90
57660;DHT22;43485;45.680;15.702;2024-02-26T12:30:54;24.00;21.40
57660;DHT22;43485;45.680;15.702;2024-02-26T12:33:20;24.50;19.30
57660;DHT22;43485;45.680;15.702;2024-02-26T12:35:46;24.50;20.60
57660;DHT22;43485;45.680;15.702;2024-02-26T12:38:16;24.60;20.20
57660;DHT22;43485;45.680;15.702;2024-02-26T12:40:42;24.80;20.20
57660;DHT22;43485;45.680;15.702;2024-02-26T12:43:08;24.50;20.70
57660;DHT22;43485;45.680;15.702;2024-02-26T12:48:22;26.60;18.60
57660;DHT22;43485;45.680;15.702;2024-02-26T12:50:48;27.60;17.10
57660;DHT22;43485;45.680;15.702;2024-02-26T12:53:14;28.60;15.70
57660;DHT22;43485;45.680;15.702;2024-02-26T12:55:40;30.20;15.30
57660;DHT22;43485;45.680;15.702;2024-02-26T12:58:07;30.90;14.00
57660;DHT22;43485;45.680;15.702;2024-02-26T13:00:33;29.50;13.80
57660;DHT22;43485;45.680;15.702;2024-02-26T13:02:59;28.60;15.10
57660;DHT22;43485;45.680;15.702;2024-02-26T13:05:26;29.00;15.00
57660;DHT22;43485;45.680;15.702;2024-02-26T13:07:52;28.00;15.30
57660;DHT22;43485;45.680;15.702;2024-02-26T13:10:18;27.50;16.30
57660;DHT22;43485;45.680;15.702;2024-02-26T13:15:30;26.90;16.80
57660;DHT22;43485;45.680;15.702;2024-02-26T13:17:55;27.00;17.10
57660;DHT22;43485;45.680;15.702;2024-02-26T13:23:07;27.50;16.30
57660;DHT22;43485;45.680;15.702;2024-02-26T13:25:56;27.10;16.50
57660;DHT22;43485;45.680;15.702;2024-02-26T13:28:22;27.00;16.60
57660;DHT22;43485;45.680;15.702;2024-02-26T13:30:50;26.70;16.70
57660;DHT22;43485;45.680;15.702;2024-02-26T13:33:23;26.10;17.10
57660;DHT22;43485;45.680;15.702;2024-02-26T13:35:50;27.00;16.60
57660;DHT22;43485;45.680;15.702;2024-02-26T13:38:16;29.50;14.70
57660;DHT22;43485;45.680;15.702;2024-02-26T13:40:42;31.60;12.10
57660;DHT22;43485;45.680;15.702;2024-02-26T13:43:08;32.00;11.30
57660;DHT22;43485;45.680;15.702;2024-02-26T13:45:34;32.70;11.60
57660;DHT22;43485;45.680;15.702;2024-02-26T13:48:02;32.20;12.30
57660;DHT22;43485;45.680;15.702;2024-02-26T13:50:29;32.50;12.00
57660;DHT22;43485;45.680;15.702;2024-02-26T13:52:55;33.60;10.30
57660;DHT22;43485;45.680;15.702;2024-02-26T13:55:22;34.20;11.00
57660;DHT22;43485;45.680;15.702;2024-02-26T13:57:49;34.20;10.90
57660;DHT22;43485;45.680;15.702;2024-02-26T14:00:17;33.80;11.00
57660;DHT22;43485;45.680;15.702;2024-02-26T14:02:43;34.30;11.10
57660;DHT22;43485;45.680;15.702;2024-02-26T14:05:09;34.50;10.60
57660;DHT22;43485;45.680;15.702;2024-02-26T14:07:35;33.50;10.60
57660;DHT22;43485;45.680;15.702;2024-02-26T14:10:01;31.80;11.10
57660;DHT22;43485;45.680;15.702;2024-02-26T14:12:27;29.80;12.10
57660;DHT22;43485;45.680;15.702;2024-02-26T14:14:53;28.00;14.90
57660;DHT22;43485;45.680;15.702;2024-02-26T14:17:33;26.40;15.90
57660;DHT22;43485;45.680;15.702;2024-02-26T14:19:59;25.30;16.70
57660;DHT22;43485;45.680;15.702;2024-02-26T14:22:25;24.60;18.10
57660;DHT22;43485;45.680;15.702;2024-02-26T14:24:52;24.20;18.40
57660;DHT22;43485;45.680;15.702;2024-02-26T14:27:18;23.60;19.10
57660;DHT22;43485;45.680;15.702;2024-02-26T14:29:47;23.10;19.80
57660;DHT22;43485;45.680;15.702;2024-02-26T14:32:13;22.50;20.40
57660;DHT22;43485;45.680;15.702;2024-02-26T14:34:39;22.20;21.20
57660;DHT22;43485;45.680;15.702;2024-02-26T14:37:05;21.90;20.90
57660;DHT22;43485;45.680;15.702;2024-02-26T14:39:31;21.50;21.40
57660;DHT22;43485;45.680;15.702;2024-02-26T14:41:58;21.30;22.30
57660;DHT22;43485;45.680;15.702;2024-02-26T14:44:24;20.90;22.00
57660;DHT22;43485;45.680;15.702;2024-02-26T14:46:50;20.60;22.90
57660;DHT22;43485;45.680;15.702;2024-02-26T14:49:17;20.50;23.10
57660;DHT22;43485;45.680;15.702;2024-02-26T14:51:43;20.30;24.70
57660;DHT22;43485;45.680;15.702;2024-02-26T14:54:10;20.20;24.60
57660;DHT22;43485;45.680;15.702;2024-02-26T14:56:37;19.90;25.30
57660;DHT22;43485;45.680;15.702;2024-02-26T14:59:03;19.80;25.70
57660;DHT22;43485;45.680;15.702;2024-02-26T15:01:29;19.70;24.90
57660;DHT22;43485;45.680;15.702;2024-02-26T15:03:55;19.60;26.40
57660;DHT22;43485;45.680;15.702;2024-02-26T15:06:22;19.40;26.10
57660;DHT22;43485;45.680;15.702;2024-02-26T15:08:48;19.20;26.60
57660;DHT22;43485;45.680;15.702;2024-02-26T15:11:14;19.10;26.80
57660;DHT22;43485;45.680;15.702;2024-02-26T15:13:40;18.90;27.10
57660;DHT22;43485;45.680;15.702;2024-02-26T15:16:07;18.60;27.20
57660;DHT22;43485;45.680;15.702;2024-02-26T15:18:33;18.30;27.60
57660;DHT22;43485;45.680;15.702;2024-02-26T15:20:58;18.00;28.70
57660;DHT22;43485;45.680;15.702;2024-02-26T15:23:24;17.80;29.00
57660;DHT22;43485;45.680;15.702;2024-02-26T15:25:50;17.60;29.80
57660;DHT22;43485;45.680;15.702;2024-02-26T15:28:16;17.40;29.80
57660;DHT22;43485;45.680;15.702;2024-02-26T15:30:42;17.20;29.80
57660;DHT22;43485;45.680;15.702;2024-02-26T15:33:08;17.20;30.00
57660;DHT22;43485;45.680;15.702;2024-02-26T15:35:34;17.10;30.70
57660;DHT22;43485;45.680;15.702;2024-02-26T15:38:02;16.90;30.20
57660;DHT22;43485;45.680;15.702;2024-02-26T15:40:29;16.90;30.40
57660;DHT22;43485;45.680;15.702;2024-02-26T15:42:55;16.70;31.40
57660;DHT22;43485;45.680;15.702;2024-02-26T15:45:21;16.60;30.90
57660;DHT22;43485;45.680;15.702;2024-02-26T15:47:47;16.40;30.30
57660;DHT22;43485;45.680;15.702;2024-02-26T15:50:13;16.30;30.30
57660;DHT22;43485;45.680;15.702;2024-02-26T15:52:39;16.20;31.30
57660;DHT22;43485;45.680;15.702;2024-02-26T15:55:05;16.10;30.30
57660;DHT22;43485;45.680;15.702;2024-02-26T15:57:31;16.00;30.40
57660;DHT22;43485;45.680;15.702;2024-02-26T15:59:58;16.00;31.00